Time;durP1;ratioP1;P1;durP2;ratioP2;P2;SDS_P1;SDS_P2;PMS_P1;PMS_P2;Temp;Humidity;BMP_temperature;BMP_pressure;BME280_temperature;BME280_humidity;BME280_pressure;Samples;Min_cycle;Max_cycle;Signal;HPM_P1;HPM_P2
2021/06/25 00:01:32;;;;;;;14.73;14.03;;;18.20;99.90;;;;;;4993910;28;20868;-70
2021/06/25 00:03:59;;;;;;;14.97;14.37;;;18.20;99.90;;;;;;4993736;28;20462;-70
2021/06/25 00:06:26;;;;;;;14.20;13.60;;;18.20;99.90;;;;;;4993765;28;20459;-70
2021/06/25 00:08:53;;;;;;;15.00;14.30;;;18.00;99.90;;;;;;4993697;28;20450;-70
2021/06/25 00:11:19;;;;;;;14.90;14.30;;;18.10;99.90;;;;;;4993751;28;20451;-69
2021/06/25 00:13:47;;;;;;;14.70;14.07;;;18.10;99.90;;;;;;4993714;28;20463;-70
2021/06/25 00:16:14;;;;;;;13.97;13.37;;;18.00;99.90;;;;;;4993592;28;20945;-70
2021/06/25 00:18:42;;;;;;;14.70;14.10;;;18.00;99.90;;;;;;4993211;28;21026;-70
2021/06/25 00:21:09;;;;;;;14.97;14.37;;;18.00;99.90;;;;;;4993483;28;21224;-71
2021/06/25 00:23:36;;;;;;;15.47;14.60;;;18.00;99.90;;;;;;4993437;28;20945;-70
2021/06/25 00:26:02;;;;;;;14.60;14.00;;;17.90;99.90;;;;;;4993255;28;20493;-70
2021/06/25 00:28:29;;;;;;;14.83;14.23;;;17.90;99.90;;;;;;4993258;28;20461;-68
2021/06/25 00:30:57;;;;;;;14.57;13.77;;;17.80;99.90;;;;;;4993162;28;20459;-70
2021/06/25 00:33:24;;;;;;;14.53;13.87;;;17.70;99.90;;;;;;4993348;28;20461;-70
2021/06/25 00:35:51;;;;;;;13.97;13.43;;;17.60;99.90;;;;;;4993472;28;20457;-70
2021/06/25 00:38:17;;;;;;;14.40;13.80;;;17.60;99.90;;;;;;4993137;28;20517;-70
2021/06/25 00:40:44;;;;;;;14.23;13.63;;;17.50;99.90;;;;;;4993130;28;20817;-70
2021/06/25 00:43:11;;;;;;;14.37;13.77;;;17.60;99.90;;;;;;4993091;28;20463;-70
2021/06/25 00:45:37;;;;;;;14.03;13.53;;;17.60;99.90;;;;;;4993189;28;20497;-70
2021/06/25 00:48:06;;;;;;;14.30;13.80;;;17.60;99.90;;;;;;4992827;28;20489;-70
2021/06/25 00:50:35;;;;;;;14.00;13.50;;;17.60;99.90;;;;;;4999775;28;20449;-71
2021/06/25 00:53:03;;;;;;;13.77;13.07;;;17.70;99.90;;;;;;5012647;28;20458;-71
2021/06/25 00:55:41;;;;;;;13.77;13.17;;;17.60;99.90;;;;;;5012840;28;20458;-71
2021/06/25 00:58:08;;;;;;;14.13;13.63;;;17.70;99.90;;;;;;5012281;28;20459;-71
2021/06/25 01:00:35;;;;;;;14.37;13.87;;;17.70;99.90;;;;;;5012271;28;20458;-71
2021/06/25 01:03:02;;;;;;;14.90;14.20;;;17.70;99.90;;;;;;5012417;28;20955;-70
2021/06/25 01:05:30;;;;;;;14.60;14.00;;;17.70;99.90;;;;;;5012147;28;20868;-70
2021/06/25 01:07:57;;;;;;;14.17;13.57;;;17.60;99.90;;;;;;5012003;28;20450;-70
2021/06/25 01:10:24;;;;;;;14.53;14.03;;;17.50;99.90;;;;;;5012169;28;20460;-71
2021/06/25 01:12:51;;;;;;;14.80;14.20;;;17.50;99.90;;;;;;5011934;28;20457;-71
2021/06/25 01:15:18;;;;;;;13.93;13.43;;;17.50;99.90;;;;;;5012189;28;20454;-70
2021/06/25 01:17:46;;;;;;;14.20;13.70;;;17.40;99.90;;;;;;5012066;28;20446;-70
2021/06/25 01:20:14;;;;;;;14.60;14.10;;;17.40;99.90;;;;;;5011923;28;20461;-70
2021/06/25 01:22:43;;;;;;;15.00;14.50;;;17.40;99.90;;;;;;5011777;28;20986;-70
2021/06/25 01:25:12;;;;;;;16.40;15.80;;;17.40;99.90;;;;;;5011451;28;20490;-70
2021/06/25 01:27:40;;;;;;;17.37;16.53;;;17.40;99.90;;;;;;5011984;28;20458;-70
2021/06/25 01:30:10;;;;;;;16.50;15.90;;;17.30;99.90;;;;;;5011837;28;20477;-71
2021/06/25 01:32:37;;;;;;;16.17;15.57;;;17.30;99.90;;;;;;5011471;28;20462;-70
2021/06/25 01:35:06;;;;;;;16.43;15.73;;;17.20;99.90;;;;;;5011891;28;20439;-71
2021/06/25 01:37:33;;;;;;;16.30;15.70;;;17.20;99.90;;;;;;5011871;28;20453;-70
2021/06/25 01:40:01;;;;;;;16.00;15.50;;;17.20;99.90;;;;;;5011692;28;20457;-71
2021/06/25 01:42:29;;;;;;;16.20;15.60;;;17.20;99.90;;;;;;5011447;28;20978;-70
2021/06/25 01:44:58;;;;;;;15.93;15.33;;;17.20;99.90;;;;;;5011420;28;20486;-71
2021/06/25 01:47:25;;;;;;;16.60;16.00;;;17.30;99.90;;;;;;5011017;28;20485;-72
2021/06/25 01:49:52;;;;;;;16.43;15.73;;;17.30;99.90;;;;;;5008953;28;20477;-70
2021/06/25 01:52:19;;;;;;;16.40;15.80;;;17.20;99.90;;;;;;4991938;28;20521;-71
2021/06/25 01:54:46;;;;;;;16.10;15.47;;;17.30;99.90;;;;;;4991937;28;20455;-70
2021/06/25 01:57:16;;;;;;;16.03;15.43;;;17.30;99.90;;;;;;4991711;28;20941;-70
2021/06/25 01:59:43;;;;;;;15.47;14.77;;;17.30;99.90;;;;;;4991740;28;20455;-70
2021/06/25 02:02:09;;;;;;;15.60;15.00;;;17.40;99.90;;;;;;4991355;28;20509;-70
2021/06/25 02:04:37;;;;;;;15.20;14.60;;;17.40;99.90;;;;;;4991461;28;20466;-71
2021/06/25 02:07:04;;;;;;;14.67;14.17;;;17.40;99.90;;;;;;4991808;28;20844;-71
2021/06/25 02:09:31;;;;;;;14.83;14.13;;;17.40;99.90;;;;;;4991364;28;20461;-71
2021/06/25 02:11:57;;;;;;;14.90;14.20;;;17.50;99.90;;;;;;4991599;28;20455;-70
2021/06/25 02:14:25;;;;;;;14.30;13.80;;;17.50;99.90;;;;;;4991615;28;20442;-71
2021/06/25 02:16:52;;;;;;;15.03;14.53;;;17.50;99.90;;;;;;4991369;28;20446;-71
2021/06/25 02:19:19;;;;;;;14.07;13.60;;;17.60;99.90;;;;;;4991727;28;20457;-71
2021/06/25 02:21:46;;;;;;;14.30;13.80;;;17.60;99.90;;;;;;4991490;28;20521;-71
2021/06/25 02:24:12;;;;;;;14.60;14.10;;;17.50;99.90;;;;;;4991368;28;20446;-71
2021/06/25 02:26:39;;;;;;;14.80;14.30;;;17.60;99.90;;;;;;4991348;28;20497;-70
2021/06/25 02:29:06;;;;;;;14.90;14.30;;;17.60;99.90;;;;;;4991396;28;20813;-71
2021/06/25 02:31:34;;;;;;;13.73;13.30;;;17.60;99.90;;;;;;4991387;28;20454;-71
2021/06/25 02:34:01;;;;;;;14.57;13.97;;;17.70;99.90;;;;;;4991283;28;20539;-71
2021/06/25 02:36:28;;;;;;;12.83;12.43;;;17.70;99.90;;;;;;4991524;28;20443;-71
2021/06/25 02:38:54;;;;;;;13.63;13.13;;;17.70;99.90;;;;;;4991319;28;20807;-70
2021/06/25 02:41:21;;;;;;;14.90;14.40;;;17.70;99.90;;;;;;4991326;28;20486;-69
2021/06/25 02:43:48;;;;;;;14.00;13.50;;;17.70;99.90;;;;;;4991527;28;20450;-70
2021/06/25 02:46:15;;;;;;;14.97;14.40;;;17.60;99.90;;;;;;4991159;28;20505;-70
2021/06/25 02:48:43;;;;;;;18.17;17.47;;;17.60;99.90;;;;;;4991071;28;20490;-71
2021/06/25 02:51:10;;;;;;;19.30;18.50;;;17.40;99.90;;;;;;5003987;28;21002;-71
2021/06/25 02:53:36;;;;;;;20.50;19.60;;;17.40;99.90;;;;;;5010635;28;20854;-71
2021/06/25 02:56:03;;;;;;;20.43;19.53;;;17.20;99.90;;;;;;5010694;28;20457;-70
2021/06/25 02:58:30;;;;;;;20.10;19.27;;;17.10;99.90;;;;;;5011039;28;20450;-69
2021/06/25 03:00:57;;;;;;;20.30;19.50;;;17.00;99.90;;;;;;5010638;28;20843;-69
2021/06/25 03:03:24;;;;;;;20.30;19.50;;;17.00;99.90;;;;;;5010503;28;20568;-69
2021/06/25 03:05:53;;;;;;;19.90;19.20;;;17.00;99.90;;;;;;5010547;28;20486;-69
2021/06/25 03:08:20;;;;;;;19.27;18.57;;;16.90;99.90;;;;;;5010659;28;20995;-68
2021/06/25 03:10:49;;;;;;;20.13;19.33;;;17.00;99.90;;;;;;5010733;28;20481;-68
2021/06/25 03:13:16;;;;;;;21.03;20.10;;;17.10;99.90;;;;;;5010645;28;20962;-69
2021/06/25 03:15:42;;;;;;;21.10;20.00;;;17.10;99.90;;;;;;5014532;28;20450;-69
2021/06/25 03:18:09;;;;;;;20.40;19.60;;;17.10;99.90;;;;;;5014182;28;20458;-70
2021/06/25 03:20:36;;;;;;;20.47;19.67;;;17.10;99.90;;;;;;5014178;28;20477;-70
2021/06/25 03:23:04;;;;;;;20.83;19.93;;;17.10;99.90;;;;;;5014054;28;20967;-70
2021/06/25 03:25:31;;;;;;;20.40;19.60;;;17.10;99.90;;;;;;5014087;28;21003;-71
2021/06/25 03:27:58;;;;;;;21.33;20.33;;;17.20;99.90;;;;;;5014129;28;20445;-72
2021/06/25 03:30:25;;;;;;;19.70;19.00;;;17.10;99.90;;;;;;5013714;28;20453;-71
2021/06/25 03:32:52;;;;;;;20.30;19.50;;;17.20;99.90;;;;;;5013994;28;20460;-72
2021/06/25 03:35:19;;;;;;;20.20;19.40;;;17.10;99.90;;;;;;5014032;28;20450;-71
2021/06/25 03:37:46;;;;;;;20.30;19.50;;;17.00;99.90;;;;;;5014142;28;20457;-71
2021/06/25 03:40:17;;;;;;;20.23;19.40;;;17.10;99.90;;;;;;5013758;28;20450;-72
2021/06/25 03:42:44;;;;;;;20.10;19.30;;;17.10;99.90;;;;;;5013750;28;20446;-72
2021/06/25 03:45:13;;;;;;;19.10;18.40;;;17.10;99.90;;;;;;5013904;28;20817;-72
2021/06/25 03:47:40;;;;;;;17.93;17.33;;;17.20;99.90;;;;;;5013526;28;20861;-72
2021/06/25 03:50:08;;;;;;;18.80;18.10;;;17.20;99.90;;;;;;5009248;28;20446;-72
2021/06/25 03:52:35;;;;;;;18.43;17.63;;;17.20;99.90;;;;;;4994039;28;20458;-73
2021/06/25 03:55:02;;;;;;;18.50;17.80;;;17.20;99.90;;;;;;4994172;28;20459;-72
2021/06/25 03:57:30;;;;;;;17.93;17.23;;;17.20;99.90;;;;;;4993605;28;20451;-72
2021/06/25 03:59:56;;;;;;;18.60;17.90;;;17.30;99.90;;;;;;4993767;28;20450;-72
2021/06/25 04:02:23;;;;;;;19.70;19.00;;;17.30;99.90;;;;;;4994056;28;20454;-71
2021/06/25 04:04:50;;;;;;;20.63;19.83;;;17.20;99.90;;;;;;4993818;28;20442;-70
2021/06/25 04:07:16;;;;;;;22.77;21.80;;;17.20;99.90;;;;;;4993929;28;20489;-71
2021/06/25 04:09:43;;;;;;;22.17;21.27;;;17.20;99.90;;;;;;4993525;28;20458;-71
2021/06/25 04:12:10;;;;;;;22.43;21.53;;;17.20;99.90;;;;;;4993645;28;20451;-71
2021/06/25 04:14:38;;;;;;;21.60;20.70;;;17.20;99.90;;;;;;4993808;28;20454;-71
2021/06/25 04:17:05;;;;;;;22.50;21.60;;;17.20;99.90;;;;;;4993584;28;20455;-70
2021/06/25 04:19:32;;;;;;;22.03;21.13;;;17.10;99.90;;;;;;4993573;28;20491;-71
2021/06/25 04:21:58;;;;;;;21.90;20.90;;;17.10;99.90;;;;;;4993235;28;20458;-72
2021/06/25 04:24:25;;;;;;;21.80;20.90;;;17.20;99.90;;;;;;4993087;28;20465;-72
2021/06/25 04:26:52;;;;;;;21.20;20.40;;;17.10;99.90;;;;;;4993508;28;20996;-72
2021/06/25 04:29:19;;;;;;;22.03;21.03;;;17.20;99.90;;;;;;4993422;28;20450;-70
2021/06/25 04:31:51;;;;;;;20.53;19.70;;;17.20;99.90;;;;;;4993269;28;20972;-68
2021/06/25 04:34:18;;;;;;;21.00;20.20;;;17.20;99.90;;;;;;4993434;28;20803;-69
2021/06/25 04:36:45;;;;;;;22.00;21.10;;;17.10;99.90;;;;;;4993280;28;20478;-70
2021/06/25 04:39:11;;;;;;;22.57;21.57;;;17.10;99.90;;;;;;4992937;28;20450;-70
2021/06/25 04:41:38;;;;;;;22.97;21.97;;;17.10;99.90;;;;;;4992810;28;20455;-71
2021/06/25 04:44:05;;;;;;;23.70;22.70;;;17.20;99.90;;;;;;4992831;28;20446;-71
2021/06/25 04:46:33;;;;;;;23.10;22.20;;;17.20;99.90;;;;;;4992722;28;20490;-71
2021/06/25 04:49:01;;;;;;;22.77;21.77;;;17.20;99.90;;;;;;4992508;28;20479;-71
2021/06/25 04:51:28;;;;;;;23.00;22.10;;;17.20;99.90;;;;;;5008005;28;20454;-71
2021/06/25 04:53:55;;;;;;;21.67;20.87;;;17.20;99.90;;;;;;5011381;28;20449;-70
2021/06/25 04:56:22;;;;;;;22.80;21.90;;;17.20;99.90;;;;;;5012425;28;20453;-70
2021/06/25 04:58:49;;;;;;;22.70;21.80;;;17.20;99.90;;;;;;5012428;28;20450;-70
2021/06/25 05:01:15;;;;;;;20.73;19.87;;;17.30;99.90;;;;;;5012360;28;20458;-71
2021/06/25 05:03:42;;;;;;;22.73;21.80;;;17.30;99.90;;;;;;5011624;28;20450;-71
2021/06/25 05:06:10;;;;;;;22.57;21.57;;;17.40;99.90;;;;;;5011976;28;20555;-70
2021/06/25 05:08:37;;;;;;;23.33;22.37;;;17.40;99.90;;;;;;5011978;28;20460;-72
2021/06/25 05:11:04;;;;;;;24.17;23.07;;;17.40;99.90;;;;;;5012266;28;20507;-72
2021/06/25 05:13:30;;;;;;;22.50;21.50;;;17.50;99.90;;;;;;5012023;28;20449;-71
2021/06/25 05:15:57;;;;;;;24.90;23.60;;;17.50;99.90;;;;;;5011962;28;20495;-70
2021/06/25 05:18:24;;;;;;;25.00;23.80;;;17.50;99.90;;;;;;5011924;28;20873;-71
2021/06/25 05:20:52;;;;;;;24.97;23.77;;;17.50;99.90;;;;;;5011998;28;20461;-72
2021/06/25 05:23:21;;;;;;;23.77;22.60;;;17.60;99.90;;;;;;5011880;28;20466;-72
2021/06/25 05:25:48;;;;;;;21.20;20.30;;;17.60;99.90;;;;;;5011703;28;20852;-70
2021/06/25 05:28:16;;;;;;;22.07;20.87;;;17.50;99.90;;;;;;5011938;28;20457;-70
2021/06/25 05:30:43;;;;;;;21.73;20.73;;;17.40;99.90;;;;;;5011740;28;20556;-71
2021/06/25 05:33:10;;;;;;;22.97;21.87;;;17.50;99.90;;;;;;5011601;28;20545;-70
2021/06/25 05:35:37;;;;;;;22.13;21.10;;;17.60;99.90;;;;;;5011460;28;20477;-72
2021/06/25 05:38:06;;;;;;;20.80;19.70;;;17.70;99.90;;;;;;5010945;28;20535;-72
2021/06/25 05:40:35;;;;;;;19.40;18.60;;;17.70;99.90;;;;;;5011741;28;20449;-71
2021/06/25 05:43:03;;;;;;;19.13;18.20;;;17.70;99.90;;;;;;5011816;28;20452;-71
2021/06/25 05:45:29;;;;;;;19.00;18.07;;;17.80;99.90;;;;;;5011119;28;20473;-71
2021/06/25 05:47:56;;;;;;;19.33;18.47;;;17.80;99.90;;;;;;5011277;28;20489;-71
2021/06/25 05:50:23;;;;;;;18.30;17.60;;;17.90;99.90;;;;;;5004789;28;20446;-72
2021/06/25 05:52:50;;;;;;;18.20;17.43;;;17.90;99.90;;;;;;4991372;28;20459;-73
2021/06/25 05:55:16;;;;;;;17.10;16.40;;;17.90;99.90;;;;;;4992154;28;20457;-72
2021/06/25 05:57:46;;;;;;;17.57;16.93;;;17.80;99.90;;;;;;4991680;28;20457;-72
2021/06/25 06:00:14;;;;;;;17.60;16.90;;;17.80;99.90;;;;;;4991689;28;20953;-72
2021/06/25 06:02:40;;;;;;;17.40;16.80;;;17.90;99.90;;;;;;4991552;28;20489;-72
2021/06/25 06:05:09;;;;;;;18.83;18.10;;;17.80;99.90;;;;;;4991473;28;20450;-71
2021/06/25 06:07:36;;;;;;;19.50;18.70;;;18.00;99.90;;;;;;4991214;28;20494;-71
2021/06/25 06:10:03;;;;;;;18.67;17.97;;;18.20;99.90;;;;;;4991615;28;20466;-71
2021/06/25 06:12:30;;;;;;;19.50;18.70;;;18.20;99.90;;;;;;4991604;28;20449;-72
2021/06/25 06:14:58;;;;;;;21.60;20.60;;;18.30;99.90;;;;;;4991304;28;20877;-72
2021/06/25 06:17:25;;;;;;;24.63;23.57;;;18.40;99.90;;;;;;4990867;28;20811;-73
2021/06/25 06:19:54;;;;;;;26.63;25.53;;;18.40;99.90;;;;;;4991244;28;20455;-72
2021/06/25 06:33:22;;;;;;;28.57;27.27;;;18.30;99.90;;;;;;4991230;28;20437;-72
2021/06/25 06:35:49;;;;;;;26.30;25.30;;;18.40;99.90;;;;;;4991601;28;20834;-72
2021/06/25 06:38:16;;;;;;;26.20;25.10;;;18.30;99.90;;;;;;4991317;28;20856;-70
2021/06/25 06:40:44;;;;;;;26.10;25.00;;;18.40;99.90;;;;;;4991316;28;20554;-72
2021/06/25 06:43:11;;;;;;;25.10;24.10;;;18.60;99.90;;;;;;4991822;28;20802;-72
2021/06/25 06:45:39;;;;;;;25.50;24.40;;;18.80;99.90;;;;;;5009831;28;20461;-71
2021/06/25 06:48:07;;;;;;;25.10;24.10;;;18.90;99.90;;;;;;5011941;28;20505;-71
2021/06/25 06:50:33;;;;;;;24.63;23.73;;;19.10;99.90;;;;;;5014811;28;20449;-72
2021/06/25 06:53:00;;;;;;;25.43;24.30;;;19.20;99.90;;;;;;5015028;28;20461;-72
2021/06/25 06:55:27;;;;;;;24.67;23.77;;;19.40;99.90;;;;;;5014570;28;20458;-72
2021/06/25 06:57:54;;;;;;;25.23;24.27;;;19.40;99.90;;;;;;5014041;28;20456;-72
2021/06/25 07:00:22;;;;;;;25.20;23.80;;;19.20;99.90;;;;;;5014731;28;20450;-71
2021/06/25 07:02:50;;;;;;;24.97;24.00;;;19.20;99.90;;;;;;5014191;28;20445;-71
2021/06/25 07:05:17;;;;;;;24.80;23.80;;;19.10;99.90;;;;;;5014395;28;20472;-72
2021/06/25 07:07:44;;;;;;;25.97;24.77;;;19.00;99.90;;;;;;5013917;28;20489;-72
2021/06/25 07:10:12;;;;;;;26.03;25.03;;;18.90;99.90;;;;;;5012971;28;20456;-72
2021/06/25 07:12:41;;;;;;;27.93;26.83;;;18.70;99.90;;;;;;5013507;28;20844;-72
2021/06/25 07:15:09;;;;;;;29.53;28.33;;;18.50;99.90;;;;;;5013848;28;20943;-72
2021/06/25 07:17:36;;;;;;;28.50;27.30;;;18.40;99.90;;;;;;5003207;28;20450;-72
2021/06/25 07:20:06;;;;;;;27.20;26.10;;;18.40;99.90;;;;;;4994969;28;20457;-72
2021/06/25 07:22:33;;;;;;;26.13;25.03;;;18.60;99.90;;;;;;4994278;28;20830;-73
2021/06/25 07:25:00;;;;;;;25.77;24.77;;;18.70;99.90;;;;;;4994373;28;20458;-72
2021/06/25 07:27:27;;;;;;;22.80;21.90;;;18.70;99.90;;;;;;4994076;28;21003;-72
2021/06/25 07:29:54;;;;;;;22.63;21.83;;;18.70;99.90;;;;;;4994017;28;20823;-72
2021/06/25 07:32:21;;;;;;;22.83;21.83;;;18.70;99.90;;;;;;4992356;28;20450;-71
2021/06/25 07:34:47;;;;;;;21.83;20.83;;;18.60;99.90;;;;;;4999347;28;20489;-72
2021/06/25 07:37:15;;;;;;;22.10;21.07;;;18.60;99.90;;;;;;5014043;28;20453;-72
2021/06/25 07:39:42;;;;;;;22.10;21.10;;;18.60;99.90;;;;;;5013570;28;20461;-72
2021/06/25 07:42:09;;;;;;;22.63;21.53;;;18.60;99.90;;;;;;5013592;28;20450;-73
2021/06/25 07:44:35;;;;;;;23.30;22.10;;;18.50;99.90;;;;;;4994464;28;20496;-72
2021/06/25 07:47:02;;;;;;;22.73;21.57;;;18.30;99.90;;;;;;4994291;28;20505;-73
2021/06/25 07:49:29;;;;;;;22.60;21.40;;;18.20;99.90;;;;;;4994200;28;20482;-74
2021/06/25 07:51:55;;;;;;;22.40;21.40;;;18.20;99.90;;;;;;5011674;28;20462;-71
2021/06/25 07:54:24;;;;;;;23.47;22.37;;;18.20;99.90;;;;;;4995985;28;20454;-73
2021/06/25 07:56:50;;;;;;;23.03;22.03;;;18.30;99.90;;;;;;4994189;28;20463;-73
2021/06/25 07:59:17;;;;;;;24.20;23.00;;;18.50;99.90;;;;;;4993599;28;20466;-72
2021/06/25 08:01:44;;;;;;;24.37;22.97;;;18.70;99.90;;;;;;4993875;28;20467;-72
2021/06/25 08:04:10;;;;;;;24.10;22.90;;;18.70;99.90;;;;;;4993613;28;20451;-72
2021/06/25 08:06:37;;;;;;;25.03;23.70;;;18.80;99.90;;;;;;5003911;28;20469;-72
2021/06/25 08:09:06;;;;;;;24.40;22.90;;;18.90;99.90;;;;;;5012968;28;20450;-71
2021/06/25 08:11:35;;;;;;;23.67;22.60;;;19.10;99.90;;;;;;5010942;28;20556;-72
2021/06/25 08:14:02;;;;;;;22.43;21.33;;;19.30;99.90;;;;;;5013051;28;20450;-72
2021/06/25 08:16:29;;;;;;;19.50;18.70;;;19.40;99.90;;;;;;5012436;28;20452;-72
2021/06/25 08:18:58;;;;;;;18.27;17.57;;;19.70;99.90;;;;;;5012746;28;20462;-75
2021/06/25 08:21:25;;;;;;;17.27;16.50;;;19.80;99.90;;;;;;5012760;28;20450;-74
2021/06/25 08:24:01;;;;;;;17.20;16.30;;;20.00;99.90;;;;;;5012174;28;20944;-74
2021/06/25 08:26:28;;;;;;;16.40;15.70;;;20.10;99.90;;;;;;5010749;28;20504;-74
2021/06/25 08:28:57;;;;;;;15.87;15.27;;;20.50;99.90;;;;;;5012038;28;20489;-74
2021/06/25 08:31:23;;;;;;;14.77;14.17;;;20.80;99.90;;;;;;5012657;28;20473;-74
2021/06/25 08:33:50;;;;;;;15.50;14.87;;;21.10;99.90;;;;;;5012607;28;20461;-74
2021/06/25 08:36:17;;;;;;;15.43;14.77;;;21.10;99.90;;;;;;5012544;28;20450;-74
2021/06/25 08:38:44;;;;;;;15.50;14.80;;;21.00;99.90;;;;;;5012577;28;20457;-74
2021/06/25 08:41:10;;;;;;;16.37;15.60;;;21.10;99.90;;;;;;5012415;28;20877;-75
2021/06/25 08:43:37;;;;;;;14.93;14.33;;;21.10;99.90;;;;;;5012287;28;20458;-74
2021/06/25 08:46:06;;;;;;;15.20;14.43;;;21.30;99.90;;;;;;5012206;28;20944;-74
2021/06/25 08:48:35;;;;;;;19.20;18.20;;;21.10;99.90;;;;;;5012220;28;20498;-75
2021/06/25 08:51:01;;;;;;;24.43;23.23;;;20.70;99.90;;;;;;5012333;28;20933;-76
2021/06/25 08:53:28;;;;;;;25.10;23.90;;;20.00;99.90;;;;;;5012189;28;20454;-76
2021/06/25 08:55:55;;;;;;;24.30;23.20;;;19.60;99.90;;;;;;5012247;28;20880;-75
2021/06/25 08:58:23;;;;;;;23.47;22.17;;;19.30;99.90;;;;;;5012148;28;20955;-76
2021/06/25 09:00:52;;;;;;;25.60;24.30;;;19.40;99.90;;;;;;5012218;28;20458;-75
2021/06/25 09:03:25;;;;;;;24.07;22.97;;;19.40;99.90;;;;;;5012213;28;20450;-75
2021/06/25 09:05:52;;;;;;;23.23;22.00;;;19.50;99.90;;;;;;5012100;28;20457;-75
2021/06/25 09:08:27;;;;;;;21.80;20.60;;;19.30;99.90;;;;;;5011962;28;20493;-75
2021/06/25 09:10:58;;;;;;;20.50;19.60;;;19.30;99.90;;;;;;5011283;28;20457;-76
2021/06/25 09:13:33;;;;;;;19.70;18.83;;;19.10;99.90;;;;;;5012158;28;21145;-75
2021/06/25 09:16:00;;;;;;;19.20;18.37;;;18.80;99.90;;;;;;5012005;28;20517;-76
2021/06/25 09:18:28;;;;;;;20.70;19.53;;;18.50;99.90;;;;;;5012054;28;20452;-75
2021/06/25 09:20:55;;;;;;;21.10;20.10;;;18.40;99.90;;;;;;5011730;28;20445;-76
2021/06/25 09:23:34;;;;;;;20.90;19.90;;;18.20;99.90;;;;;;5011765;28;20454;-76
2021/06/25 09:26:06;;;;;;;21.10;20.10;;;18.20;99.90;;;;;;5011899;28;20454;-75
2021/06/25 09:28:36;;;;;;;20.63;19.73;;;18.10;99.90;;;;;;5011894;28;20496;-75
2021/06/25 09:31:12;;;;;;;19.97;19.13;;;18.20;99.90;;;;;;5011933;28;20822;-75
2021/06/25 09:33:44;;;;;;;20.63;19.70;;;18.20;99.90;;;;;;5011603;28;20458;-76
2021/06/25 09:36:22;;;;;;;20.43;19.53;;;18.00;99.90;;;;;;5011669;28;20466;-75
2021/06/25 09:38:57;;;;;;;20.70;19.70;;;18.00;99.90;;;;;;5011518;28;20454;-76
2021/06/25 09:41:25;;;;;;;21.57;20.47;;;17.90;99.90;;;;;;5011529;28;20445;-76
2021/06/25 09:43:57;;;;;;;23.47;22.20;;;17.90;99.90;;;;;;5011261;28;20449;-76
2021/06/25 09:46:31;;;;;;;25.27;23.67;;;18.00;99.90;;;;;;5011037;28;20712;-76
2021/06/25 09:49:02;;;;;;;21.33;20.33;;;18.10;99.90;;;;;;5010824;28;20501;-75
2021/06/25 09:51:28;;;;;;;23.20;22.00;;;18.20;99.90;;;;;;4995640;28;20447;-75
2021/06/25 09:54:10;;;;;;;24.80;23.40;;;18.30;99.90;;;;;;4991750;28;20458;-76
2021/06/25 09:56:41;;;;;;;26.63;25.23;;;18.50;99.90;;;;;;4991522;28;20458;-77
2021/06/25 09:59:33;;;;;;;26.80;25.50;;;18.60;99.90;;;;;;4991642;28;20782;-76
2021/06/25 10:02:19;;;;;;;26.77;25.50;;;18.50;99.90;;;;;;4991579;28;20513;-76
2021/06/25 10:04:48;;;;;;;28.90;27.50;;;18.30;99.90;;;;;;4991620;28;20450;-76
2021/06/25 10:07:16;;;;;;;29.23;27.80;;;18.30;99.90;;;;;;4991422;28;20459;-76
2021/06/25 10:09:45;;;;;;;33.10;31.20;;;18.30;99.90;;;;;;4991280;28;20531;-76
2021/06/25 10:12:13;;;;;;;32.93;31.23;;;18.10;99.90;;;;;;4991137;28;20450;-77
2021/06/25 10:14:41;;;;;;;35.30;33.37;;;18.20;99.90;;;;;;4991174;28;20457;-76
2021/06/25 10:17:09;;;;;;;36.90;34.90;;;18.10;99.90;;;;;;4991221;28;20450;-76
2021/06/25 10:19:37;;;;;;;35.70;33.57;;;18.10;99.90;;;;;;4991176;28;20458;-76
2021/06/25 10:22:08;;;;;;;39.53;37.33;;;18.10;99.90;;;;;;4991160;28;20457;-76
2021/06/25 10:24:35;;;;;;;39.03;36.90;;;18.10;99.90;;;;;;4991436;28;20509;-75
2021/06/25 10:27:03;;;;;;;39.97;37.60;;;18.10;99.90;;;;;;4991472;28;20817;-76
2021/06/25 10:29:36;;;;;;;38.07;36.07;;;18.10;99.90;;;;;;4991184;28;20450;-76
2021/06/25 10:32:07;;;;;;;41.43;38.97;;;18.00;99.90;;;;;;4991544;28;20455;-76
2021/06/25 10:34:35;;;;;;;41.20;38.90;;;18.20;99.90;;;;;;4991390;28;21006;-76
2021/06/25 10:37:05;;;;;;;41.77;39.27;;;18.50;99.90;;;;;;4991103;28;20971;-75
2021/06/25 10:39:33;;;;;;;41.53;39.13;;;18.70;99.90;;;;;;4991310;28;20447;-75
2021/06/25 10:42:02;;;;;;;43.37;40.87;;;18.90;99.90;;;;;;4991260;28;20490;-75
2021/06/25 10:44:42;;;;;;;43.83;41.43;;;19.00;99.90;;;;;;4991106;28;20876;-75
2021/06/25 10:47:22;;;;;;;42.67;40.20;;;19.20;99.90;;;;;;4990959;28;20481;-75
2021/06/25 10:50:19;;;;;;;39.13;37.03;;;19.30;99.90;;;;;;4993367;28;20442;-75
2021/06/25 10:53:08;;;;;;;37.40;35.47;;;19.50;99.90;;;;;;5010909;28;20446;-75
2021/06/25 10:55:44;;;;;;;36.80;34.70;;;19.70;99.90;;;;;;5010902;28;20453;-75
2021/06/25 10:58:12;;;;;;;32.97;31.03;;;19.70;99.90;;;;;;5010634;28;20463;-75
2021/06/25 11:00:53;;;;;;;35.83;33.67;;;19.60;99.90;;;;;;5010885;28;20486;-75
2021/06/25 11:03:32;;;;;;;36.07;34.00;;;19.60;99.90;;;;;;5010722;28;20457;-75
2021/06/25 11:05:58;;;;;;;35.77;33.83;;;19.30;99.90;;;;;;5010779;28;20461;-75
2021/06/25 11:08:26;;;;;;;38.03;35.97;;;19.10;99.90;;;;;;5010455;28;20485;-75
2021/06/25 11:10:56;;;;;;;40.57;38.17;;;19.00;99.90;;;;;;5010574;28;20454;-75
2021/06/25 11:13:24;;;;;;;37.67;35.57;;;18.80;99.90;;;;;;5010462;28;20464;-75
2021/06/25 11:15:53;;;;;;;35.83;33.80;;;18.80;99.90;;;;;;5010413;28;20967;-75
2021/06/25 11:18:22;;;;;;;34.00;31.90;;;18.90;99.90;;;;;;5010581;28;20453;-75
2021/06/25 11:20:51;;;;;;;32.13;30.03;;;19.20;99.90;;;;;;5010607;28;20798;-74
2021/06/25 11:23:22;;;;;;;30.33;28.30;;;19.20;99.90;;;;;;5010120;28;20959;-74
2021/06/25 11:25:52;;;;;;;28.73;26.93;;;19.50;99.90;;;;;;5010541;28;20457;-74
2021/06/25 11:28:25;;;;;;;27.47;25.60;;;19.70;99.90;;;;;;5010459;28;20501;-75
2021/06/25 11:31:05;;;;;;;27.30;25.30;;;20.20;99.90;;;;;;5010369;28;20508;-74
2021/06/25 11:33:34;;;;;;;25.47;23.60;;;20.60;99.90;;;;;;5010459;28;20453;-75
2021/06/25 11:36:21;;;;;;;25.23;23.57;;;21.00;99.90;;;;;;5013322;28;20442;-74
2021/06/25 11:39:00;;;;;;;25.50;23.90;;;21.00;99.90;;;;;;5014027;28;20452;-74
2021/06/25 11:41:30;;;;;;;25.37;23.63;;;21.30;99.90;;;;;;5013703;28;20951;-75
2021/06/25 11:43:58;;;;;;;26.20;24.30;;;21.40;99.90;;;;;;5013694;28;20446;-75
2021/06/25 11:46:26;;;;;;;26.33;24.23;;;21.20;99.90;;;;;;5013509;28;20472;-75
2021/06/25 11:48:58;;;;;;;27.30;25.37;;;21.30;99.90;;;;;;5013359;28;20494;-75
2021/06/25 11:51:33;;;;;;;24.73;23.13;;;21.50;99.90;;;;;;4998590;28;20443;-74
2021/06/25 11:54:03;;;;;;;25.80;24.00;;;21.70;99.90;;;;;;4994008;28;20454;-74
2021/06/25 11:56:31;;;;;;;25.50;23.90;;;22.00;99.90;;;;;;4994121;28;20459;-74
2021/06/25 11:59:00;;;;;;;22.57;21.13;;;22.40;99.90;;;;;;4993903;28;20451;-73
2021/06/25 12:01:27;;;;;;;23.40;21.90;;;22.70;99.90;;;;;;4993793;28;20447;-74
2021/06/25 12:03:55;;;;;;;24.90;23.20;;;23.10;99.90;;;;;;4993779;28;20852;-74
2021/06/25 12:06:23;;;;;;;25.60;23.90;;;23.20;99.90;;;;;;4993527;28;20497;-74
2021/06/25 12:09:00;;;;;;;24.90;23.30;;;23.00;99.90;;;;;;4993472;28;20483;-73
2021/06/25 12:11:28;;;;;;;24.37;22.73;;;22.60;99.90;;;;;;4993984;28;20517;-73
2021/06/25 12:13:58;;;;;;;23.30;21.90;;;22.30;99.90;;;;;;4993802;28;20458;-72
2021/06/25 12:16:25;;;;;;;22.87;21.47;;;22.50;99.90;;;;;;4993685;28;20451;-71
2021/06/25 12:18:52;;;;;;;23.47;22.07;;;22.50;99.90;;;;;;4993582;28;20455;-71
2021/06/25 12:21:21;;;;;;;24.13;22.67;;;22.90;99.90;;;;;;4993728;28;20475;-71
2021/06/25 12:23:51;;;;;;;22.27;20.77;;;23.70;99.90;;;;;;4993579;28;20450;-71
2021/06/25 12:26:19;;;;;;;22.13;20.73;;;24.10;99.90;;;;;;4993844;28;20447;-71
2021/06/25 12:28:47;;;;;;;24.17;22.47;;;23.90;99.90;;;;;;4993495;28;20549;-72
2021/06/25 12:31:19;;;;;;;24.47;22.87;;;23.60;99.90;;;;;;4993584;28;20446;-70
2021/06/25 12:33:46;;;;;;;24.27;22.77;;;23.80;99.90;;;;;;4993236;28;20455;-69
2021/06/25 12:36:14;;;;;;;21.87;20.50;;;23.60;99.90;;;;;;4993044;28;20963;-70
2021/06/25 12:38:42;;;;;;;22.20;20.80;;;23.50;99.90;;;;;;4993234;28;20578;-69
2021/06/25 12:41:10;;;;;;;21.20;19.90;;;23.10;99.90;;;;;;4993097;28;20711;-69
2021/06/25 12:43:39;;;;;;;20.33;19.13;;;22.90;99.90;;;;;;4992914;28;20458;-70
2021/06/25 12:46:10;;;;;;;20.10;18.90;;;23.00;99.90;;;;;;4992614;28;20461;-70